sensor_id;sensor_type;location;lat;lon;timestamp;temperature;humidity
1800;DHT22;919;48.274;12.292;2023-08-08T00:00:21;13.00;99.90
1800;DHT22;919;48.274;12.292;2023-08-08T00:02:47;13.00;99.90
1800;DHT22;919;48.274;12.292;2023-08-08T00:05:14;13.00;99.90
1800;DHT22;919;48.274;12.292;2023-08-08T00:07:41;13.00;99.90
1800;DHT22;919;48.274;12.292;2023-08-08T00:10:08;13.00;99.90
1800;DHT22;919;48.274;12.292;2023-08-08T00:12:36;13.00;99.90
1800;DHT22;919;48.274;12.292;2023-08-08T00:15:04;13.00;99.90
1800;DHT22;919;48.274;12.292;2023-08-08T00:17:31;13.00;99.90
1800;DHT22;919;48.274;12.292;2023-08-08T00:19:58;13.00;99.90
1800;DHT22;919;48.274;12.292;2023-08-08T00:22:25;13.00;99.90
1800;DHT22;919;48.274;12.292;2023-08-08T00:24:51;13.00;99.90
1800;DHT22;919;48.274;12.292;2023-08-08T00:27:18;13.00;99.90
1800;DHT22;919;48.274;12.292;2023-08-08T00:29:46;12.90;99.90
1800;DHT22;919;48.274;12.292;2023-08-08T00:32:13;12.80;99.90
1800;DHT22;919;48.274;12.292;2023-08-08T00:34:39;12.80;99.90
1800;DHT22;919;48.274;12.292;2023-08-08T00:37:06;12.80;99.90
1800;DHT22;919;48.274;12.292;2023-08-08T00:39:33;12.80;99.90
1800;DHT22;919;48.274;12.292;2023-08-08T00:41:59;12.70;99.90
1800;DHT22;919;48.274;12.292;2023-08-08T00:44:26;12.70;99.90
1800;DHT22;919;48.274;12.292;2023-08-08T00:46:54;12.70;99.90
1800;DHT22;919;48.274;12.292;2023-08-08T00:49:21;12.70;99.90
1800;DHT22;919;48.274;12.292;2023-08-08T00:51:49;12.70;99.90
1800;DHT22;919;48.274;12.292;2023-08-08T00:54:16;12.70;99.90
1800;DHT22;919;48.274;12.292;2023-08-08T00:56:43;12.60;99.90
1800;DHT22;919;48.274;12.292;2023-08-08T00:59:10;12.60;99.90
1800;DHT22;919;48.274;12.292;2023-08-08T01:01:38;12.60;99.90
1800;DHT22;919;48.274;12.292;2023-08-08T01:04:06;12.60;99.90
1800;DHT22;919;48.274;12.292;2023-08-08T01:06:37;12.60;99.90
1800;DHT22;919;48.274;12.292;2023-08-08T01:09:12;12.60;99.90
1800;DHT22;919;48.274;12.292;2023-08-08T01:11:39;12.60;99.90
1800;DHT22;919;48.274;12.292;2023-08-08T01:14:08;12.60;99.90
1800;DHT22;919;48.274;12.292;2023-08-08T01:16:35;12.70;99.90
1800;DHT22;919;48.274;12.292;2023-08-08T01:19:03;12.80;99.90
1800;DHT22;919;48.274;12.292;2023-08-08T01:21:35;12.80;99.90
1800;DHT22;919;48.274;12.292;2023-08-08T01:24:18;12.80;99.90
1800;DHT22;919;48.274;12.292;2023-08-08T01:26:46;12.80;99.90
1800;DHT22;919;48.274;12.292;2023-08-08T01:29:13;12.90;99.90
1800;DHT22;919;48.274;12.292;2023-08-08T01:31:40;12.90;99.90
1800;DHT22;919;48.274;12.292;2023-08-08T01:34:07;12.90;99.90
1800;DHT22;919;48.274;12.292;2023-08-08T01:36:38;12.90;99.90
1800;DHT22;919;48.274;12.292;2023-08-08T01:39:14;12.90;99.90
1800;DHT22;919;48.274;12.292;2023-08-08T01:41:46;12.90;99.90
1800;DHT22;919;48.274;12.292;2023-08-08T01:44:15;12.80;99.90
1800;DHT22;919;48.274;12.292;2023-08-08T01:46:42;12.90;99.90
1800;DHT22;919;48.274;12.292;2023-08-08T01:49:08;12.90;99.90
1800;DHT22;919;48.274;12.292;2023-08-08T01:51:35;12.90;99.90
1800;DHT22;919;48.274;12.292;2023-08-08T01:54:02;12.90;99.90
1800;DHT22;919;48.274;12.292;2023-08-08T01:56:29;12.90;99.90
1800;DHT22;919;48.274;12.292;2023-08-08T01:58:57;12.90;99.90
1800;DHT22;919;48.274;12.292;2023-08-08T02:01:24;12.90;99.90
1800;DHT22;919;48.274;12.292;2023-08-08T02:03:50;12.90;99.90
1800;DHT22;919;48.274;12.292;2023-08-08T02:06:17;13.00;99.90
1800;DHT22;919;48.274;12.292;2023-08-08T02:08:44;13.00;99.90
1800;DHT22;919;48.274;12.292;2023-08-08T02:11:11;13.00;99.90
1800;DHT22;919;48.274;12.292;2023-08-08T02:13:38;13.10;99.90
1800;DHT22;919;48.274;12.292;2023-08-08T02:16:06;13.10;99.90
1800;DHT22;919;48.274;12.292;2023-08-08T02:18:32;13.20;99.90
1800;DHT22;919;48.274;12.292;2023-08-08T02:20:59;13.20;99.90
1800;DHT22;919;48.274;12.292;2023-08-08T02:23:26;13.10;99.90
1800;DHT22;919;48.274;12.292;2023-08-08T02:25:53;13.10;99.90
1800;DHT22;919;48.274;12.292;2023-08-08T02:28:20;13.20;99.90
1800;DHT22;919;48.274;12.292;2023-08-08T02:30:46;13.10;99.90
1800;DHT22;919;48.274;12.292;2023-08-08T02:33:14;13.10;99.90
1800;DHT22;919;48.274;12.292;2023-08-08T02:35:41;13.10;99.90
1800;DHT22;919;48.274;12.292;2023-08-08T02:38:08;13.10;99.90
1800;DHT22;919;48.274;12.292;2023-08-08T02:40:35;13.10;99.90
1800;DHT22;919;48.274;12.292;2023-08-08T02:43:01;13.00;99.90
1800;DHT22;919;48.274;12.292;2023-08-08T02:45:28;13.00;99.90
1800;DHT22;919;48.274;12.292;2023-08-08T02:47:55;13.00;99.90
1800;DHT22;919;48.274;12.292;2023-08-08T02:50:23;12.90;99.90
1800;DHT22;919;48.274;12.292;2023-08-08T02:52:50;12.90;99.90
1800;DHT22;919;48.274;12.292;2023-08-08T02:55:17;12.80;99.90
1800;DHT22;919;48.274;12.292;2023-08-08T02:57:44;12.80;99.90
1800;DHT22;919;48.274;12.292;2023-08-08T03:00:11;12.70;99.90
1800;DHT22;919;48.274;12.292;2023-08-08T03:02:38;12.70;99.90
1800;DHT22;919;48.274;12.292;2023-08-08T03:05:06;12.70;99.90
1800;DHT22;919;48.274;12.292;2023-08-08T03:07:34;12.70;99.90
1800;DHT22;919;48.274;12.292;2023-08-08T03:10:00;12.70;99.90
1800;DHT22;919;48.274;12.292;2023-08-08T03:12:27;12.60;99.90
1800;DHT22;919;48.274;12.292;2023-08-08T03:14:54;12.50;99.90
1800;DHT22;919;48.274;12.292;2023-08-08T03:17:21;12.40;99.90
1800;DHT22;919;48.274;12.292;2023-08-08T03:19:47;12.40;99.90
1800;DHT22;919;48.274;12.292;2023-08-08T03:22:14;12.30;99.90
1800;DHT22;919;48.274;12.292;2023-08-08T03:24:42;12.20;99.90
1800;DHT22;919;48.274;12.292;2023-08-08T03:27:09;12.10;99.90
1800;DHT22;919;48.274;12.292;2023-08-08T03:29:35;12.00;99.90
1800;DHT22;919;48.274;12.292;2023-08-08T03:32:03;11.90;99.90
1800;DHT22;919;48.274;12.292;2023-08-08T03:34:30;11.80;99.90
1800;DHT22;919;48.274;12.292;2023-08-08T03:36:56;11.80;99.90
1800;DHT22;919;48.274;12.292;2023-08-08T03:39:23;11.80;99.90
1800;DHT22;919;48.274;12.292;2023-08-08T03:41:51;11.70;99.90
1800;DHT22;919;48.274;12.292;2023-08-08T03:44:18;11.70;99.90
1800;DHT22;919;48.274;12.292;2023-08-08T03:46:45;11.70;99.90
1800;DHT22;919;48.274;12.292;2023-08-08T03:49:11;11.60;99.90
1800;DHT22;919;48.274;12.292;2023-08-08T03:51:38;11.60;99.90
1800;DHT22;919;48.274;12.292;2023-08-08T03:54:05;11.50;99.90
1800;DHT22;919;48.274;12.292;2023-08-08T03:56:31;11.40;99.90
1800;DHT22;919;48.274;12.292;2023-08-08T03:58:59;11.30;99.90
1800;DHT22;919;48.274;12.292;2023-08-08T04:01:26;11.30;99.90
1800;DHT22;919;48.274;12.292;2023-08-08T04:03:53;11.30;99.90
1800;DHT22;919;48.274;12.292;2023-08-08T04:06:19;11.30;99.90
1800;DHT22;919;48.274;12.292;2023-08-08T04:08:46;11.20;99.90
1800;DHT22;919;48.274;12.292;2023-08-08T04:11:13;11.20;99.90
1800;DHT22;919;48.274;12.292;2023-08-08T04:13:39;11.20;99.90
1800;DHT22;919;48.274;12.292;2023-08-08T04:16:08;11.30;99.90
1800;DHT22;919;48.274;12.292;2023-08-08T04:18:34;11.30;99.90
1800;DHT22;919;48.274;12.292;2023-08-08T04:21:01;11.30;99.90
1800;DHT22;919;48.274;12.292;2023-08-08T04:23:28;11.40;99.90
1800;DHT22;919;48.274;12.292;2023-08-08T04:25:54;11.40;99.90
1800;DHT22;919;48.274;12.292;2023-08-08T04:28:21;11.40;99.90
1800;DHT22;919;48.274;12.292;2023-08-08T04:30:48;11.40;99.90
1800;DHT22;919;48.274;12.292;2023-08-08T04:33:16;11.50;99.90
1800;DHT22;919;48.274;12.292;2023-08-08T04:35:43;11.50;99.90
1800;DHT22;919;48.274;12.292;2023-08-08T04:38:09;11.50;99.90
1800;DHT22;919;48.274;12.292;2023-08-08T04:40:36;11.50;99.90
1800;DHT22;919;48.274;12.292;2023-08-08T04:43:03;11.60;99.90
1800;DHT22;919;48.274;12.292;2023-08-08T04:45:30;11.60;99.90
1800;DHT22;919;48.274;12.292;2023-08-08T04:47:56;11.70;99.90
1800;DHT22;919;48.274;12.292;2023-08-08T04:50:25;11.80;99.90
1800;DHT22;919;48.274;12.292;2023-08-08T04:52:52;11.90;99.90
1800;DHT22;919;48.274;12.292;2023-08-08T04:55:18;12.10;99.90
1800;DHT22;919;48.274;12.292;2023-08-08T04:57:45;12.20;99.90
1800;DHT22;919;48.274;12.292;2023-08-08T05:00:14;12.30;99.90
1800;DHT22;919;48.274;12.292;2023-08-08T05:02:41;12.30;99.90
1800;DHT22;919;48.274;12.292;2023-08-08T05:05:08;12.40;99.90
1800;DHT22;919;48.274;12.292;2023-08-08T05:07:36;12.40;99.90
1800;DHT22;919;48.274;12.292;2023-08-08T05:10:04;12.50;99.90
1800;DHT22;919;48.274;12.292;2023-08-08T05:12:31;12.50;99.90
1800;DHT22;919;48.274;12.292;2023-08-08T05:14:57;12.50;99.90
1800;DHT22;919;48.274;12.292;2023-08-08T05:17:24;12.60;99.90
1800;DHT22;919;48.274;12.292;2023-08-08T05:19:51;12.60;99.90
1800;DHT22;919;48.274;12.292;2023-08-08T05:22:18;12.70;99.90
1800;DHT22;919;48.274;12.292;2023-08-08T05:24:46;12.80;99.90
1800;DHT22;919;48.274;12.292;2023-08-08T05:27:12;12.80;99.90
1800;DHT22;919;48.274;12.292;2023-08-08T05:29:39;12.90;99.90
1800;DHT22;919;48.274;12.292;2023-08-08T05:32:07;13.00;99.90
1800;DHT22;919;48.274;12.292;2023-08-08T05:34:34;13.10;99.90
1800;DHT22;919;48.274;12.292;2023-08-08T05:37:01;13.20;99.90
1800;DHT22;919;48.274;12.292;2023-08-08T05:39:29;13.30;99.90
1800;DHT22;919;48.274;12.292;2023-08-08T05:41:57;13.40;99.90
1800;DHT22;919;48.274;12.292;2023-08-08T05:44:24;13.60;99.90
1800;DHT22;919;48.274;12.292;2023-08-08T05:46:51;13.60;99.90
1800;DHT22;919;48.274;12.292;2023-08-08T05:49:18;13.70;99.90
1800;DHT22;919;48.274;12.292;2023-08-08T05:51:44;13.80;99.90
1800;DHT22;919;48.274;12.292;2023-08-08T05:54:11;13.90;99.90
1800;DHT22;919;48.274;12.292;2023-08-08T05:56:38;14.10;99.90
1800;DHT22;919;48.274;12.292;2023-08-08T05:59:06;14.40;99.90
1800;DHT22;919;48.274;12.292;2023-08-08T06:01:33;14.50;99.90
1800;DHT22;919;48.274;12.292;2023-08-08T06:04:01;14.70;99.90
1800;DHT22;919;48.274;12.292;2023-08-08T06:06:29;14.70;99.90
1800;DHT22;919;48.274;12.292;2023-08-08T06:08:55;14.70;99.90
1800;DHT22;919;48.274;12.292;2023-08-08T06:11:22;14.60;99.90
1800;DHT22;919;48.274;12.292;2023-08-08T06:13:49;14.60;99.90
1800;DHT22;919;48.274;12.292;2023-08-08T06:16:17;14.70;99.90
1800;DHT22;919;48.274;12.292;2023-08-08T06:18:44;14.70;99.90
1800;DHT22;919;48.274;12.292;2023-08-08T06:21:11;14.80;99.90
1800;DHT22;919;48.274;12.292;2023-08-08T06:23:37;14.90;99.90
1800;DHT22;919;48.274;12.292;2023-08-08T06:26:04;15.00;99.90
1800;DHT22;919;48.274;12.292;2023-08-08T06:28:31;15.20;99.90
1800;DHT22;919;48.274;12.292;2023-08-08T06:30:58;15.40;99.90
1800;DHT22;919;48.274;12.292;2023-08-08T06:33:26;15.50;99.90
1800;DHT22;919;48.274;12.292;2023-08-08T06:35:54;15.70;99.90
1800;DHT22;919;48.274;12.292;2023-08-08T06:38:20;15.70;99.90
1800;DHT22;919;48.274;12.292;2023-08-08T06:40:47;15.70;99.90
1800;DHT22;919;48.274;12.292;2023-08-08T06:43:14;15.80;99.90
1800;DHT22;919;48.274;12.292;2023-08-08T06:45:41;15.80;99.90
1800;DHT22;919;48.274;12.292;2023-08-08T06:48:08;15.90;99.90
1800;DHT22;919;48.274;12.292;2023-08-08T06:50:37;15.90;99.90
1800;DHT22;919;48.274;12.292;2023-08-08T06:53:04;16.00;99.90
1800;DHT22;919;48.274;12.292;2023-08-08T06:55:31;16.00;99.90
1800;DHT22;919;48.274;12.292;2023-08-08T06:57:58;16.10;99.90
1800;DHT22;919;48.274;12.292;2023-08-08T07:00:24;16.10;99.90
1800;DHT22;919;48.274;12.292;2023-08-08T07:02:52;16.20;99.90
1800;DHT22;919;48.274;12.292;2023-08-08T07:05:19;16.20;99.90
1800;DHT22;919;48.274;12.292;2023-08-08T07:07:49;16.30;99.90
1800;DHT22;919;48.274;12.292;2023-08-08T07:10:16;16.40;99.90
1800;DHT22;919;48.274;12.292;2023-08-08T07:12:42;16.40;99.90
1800;DHT22;919;48.274;12.292;2023-08-08T07:15:09;16.50;99.90
1800;DHT22;919;48.274;12.292;2023-08-08T07:17:37;16.40;99.90
1800;DHT22;919;48.274;12.292;2023-08-08T07:20:05;16.50;99.90
1800;DHT22;919;48.274;12.292;2023-08-08T07:22:32;16.50;99.90
1800;DHT22;919;48.274;12.292;2023-08-08T07:25:01;16.60;99.90
1800;DHT22;919;48.274;12.292;2023-08-08T07:27:28;16.60;99.90
1800;DHT22;919;48.274;12.292;2023-08-08T07:29:55;16.70;99.90
1800;DHT22;919;48.274;12.292;2023-08-08T07:32:21;16.70;99.90
1800;DHT22;919;48.274;12.292;2023-08-08T07:34:48;16.60;99.90
1800;DHT22;919;48.274;12.292;2023-08-08T07:37:15;16.70;99.90
1800;DHT22;919;48.274;12.292;2023-08-08T07:39:41;16.70;99.90
1800;DHT22;919;48.274;12.292;2023-08-08T07:42:09;16.80;99.90
1800;DHT22;919;48.274;12.292;2023-08-08T07:44:36;16.80;99.90
1800;DHT22;919;48.274;12.292;2023-08-08T07:47:04;16.80;99.90
1800;DHT22;919;48.274;12.292;2023-08-08T07:49:31;16.90;99.90
1800;DHT22;919;48.274;12.292;2023-08-08T07:51:58;17.00;99.90
1800;DHT22;919;48.274;12.292;2023-08-08T07:54:25;17.00;99.90
1800;DHT22;919;48.274;12.292;2023-08-08T07:56:51;17.00;99.90
1800;DHT22;919;48.274;12.292;2023-08-08T07:59:19;17.00;99.90
1800;DHT22;919;48.274;12.292;2023-08-08T08:01:46;17.00;99.90
1800;DHT22;919;48.274;12.292;2023-08-08T08:04:13;17.00;99.90
1800;DHT22;919;48.274;12.292;2023-08-08T08:06:40;17.00;99.90
1800;DHT22;919;48.274;12.292;2023-08-08T08:09:06;17.00;99.90
1800;DHT22;919;48.274;12.292;2023-08-08T08:11:33;17.10;99.90
1800;DHT22;919;48.274;12.292;2023-08-08T08:14:01;17.20;99.90
1800;DHT22;919;48.274;12.292;2023-08-08T08:16:29;17.30;99.90
1800;DHT22;919;48.274;12.292;2023-08-08T08:18:56;17.30;99.90
1800;DHT22;919;48.274;12.292;2023-08-08T08:21:23;17.30;99.90
1800;DHT22;919;48.274;12.292;2023-08-08T08:23:50;17.40;99.90
1800;DHT22;919;48.274;12.292;2023-08-08T08:26:16;17.50;99.90
1800;DHT22;919;48.274;12.292;2023-08-08T08:28:43;17.50;99.90
1800;DHT22;919;48.274;12.292;2023-08-08T08:31:10;17.50;99.90
1800;DHT22;919;48.274;12.292;2023-08-08T08:33:38;17.60;99.90
1800;DHT22;919;48.274;12.292;2023-08-08T08:36:05;17.60;99.90
1800;DHT22;919;48.274;12.292;2023-08-08T08:38:32;17.70;99.90
1800;DHT22;919;48.274;12.292;2023-08-08T08:40:59;17.60;99.90
1800;DHT22;919;48.274;12.292;2023-08-08T08:43:26;17.70;99.90
1800;DHT22;919;48.274;12.292;2023-08-08T08:45:53;17.80;99.90
1800;DHT22;919;48.274;12.292;2023-08-08T08:48:21;17.90;99.90
1800;DHT22;919;48.274;12.292;2023-08-08T08:50:49;17.90;99.90
1800;DHT22;919;48.274;12.292;2023-08-08T08:53:16;18.00;99.90
1800;DHT22;919;48.274;12.292;2023-08-08T08:55:44;18.20;99.90
1800;DHT22;919;48.274;12.292;2023-08-08T08:58:14;18.30;99.90
1800;DHT22;919;48.274;12.292;2023-08-08T09:00:43;18.30;99.90
1800;DHT22;919;48.274;12.292;2023-08-08T09:03:10;18.30;99.90
1800;DHT22;919;48.274;12.292;2023-08-08T09:05:38;18.40;99.90
1800;DHT22;919;48.274;12.292;2023-08-08T09:08:07;18.50;99.90
1800;DHT22;919;48.274;12.292;2023-08-08T09:10:34;18.60;99.90
1800;DHT22;919;48.274;12.292;2023-08-08T09:13:01;18.70;99.90
1800;DHT22;919;48.274;12.292;2023-08-08T09:15:30;18.90;99.90
1800;DHT22;919;48.274;12.292;2023-08-08T09:17:57;19.00;99.90
1800;DHT22;919;48.274;12.292;2023-08-08T09:20:25;19.10;99.90
1800;DHT22;919;48.274;12.292;2023-08-08T09:22:53;19.20;99.90
1800;DHT22;919;48.274;12.292;2023-08-08T09:25:21;19.30;99.90
1800;DHT22;919;48.274;12.292;2023-08-08T09:27:50;19.40;99.90
1800;DHT22;919;48.274;12.292;2023-08-08T09:30:17;19.50;99.90
1800;DHT22;919;48.274;12.292;2023-08-08T09:32:44;19.50;99.90
1800;DHT22;919;48.274;12.292;2023-08-08T09:35:11;19.60;99.90
1800;DHT22;919;48.274;12.292;2023-08-08T09:37:38;19.60;99.90
1800;DHT22;919;48.274;12.292;2023-08-08T09:40:07;19.80;99.90
1800;DHT22;919;48.274;12.292;2023-08-08T09:42:40;19.90;99.90
1800;DHT22;919;48.274;12.292;2023-08-08T09:45:09;20.00;99.90
1800;DHT22;919;48.274;12.292;2023-08-08T09:47:37;20.10;99.90
1800;DHT22;919;48.274;12.292;2023-08-08T09:50:08;20.40;99.90
1800;DHT22;919;48.274;12.292;2023-08-08T09:52:36;20.50;99.90
1800;DHT22;919;48.274;12.292;2023-08-08T09:55:05;20.60;99.90
1800;DHT22;919;48.274;12.292;2023-08-08T09:57:35;20.60;99.90
1800;DHT22;919;48.274;12.292;2023-08-08T10:00:08;20.70;99.90
1800;DHT22;919;48.274;12.292;2023-08-08T10:02:42;20.80;99.90
1800;DHT22;919;48.274;12.292;2023-08-08T10:05:10;20.90;99.90
1800;DHT22;919;48.274;12.292;2023-08-08T10:07:39;20.80;99.90
1800;DHT22;919;48.274;12.292;2023-08-08T10:10:07;20.70;99.90
1800;DHT22;919;48.274;12.292;2023-08-08T10:12:37;20.70;99.90
1800;DHT22;919;48.274;12.292;2023-08-08T10:15:08;20.50;99.90
1800;DHT22;919;48.274;12.292;2023-08-08T10:17:36;20.70;99.90
1800;DHT22;919;48.274;12.292;2023-08-08T10:20:04;20.90;99.90
1800;DHT22;919;48.274;12.292;2023-08-08T10:22:41;20.90;99.90
1800;DHT22;919;48.274;12.292;2023-08-08T10:25:09;21.00;99.90
1800;DHT22;919;48.274;12.292;2023-08-08T10:27:37;21.00;99.90
1800;DHT22;919;48.274;12.292;2023-08-08T10:30:08;21.10;99.90
1800;DHT22;919;48.274;12.292;2023-08-08T10:32:41;21.20;99.90
1800;DHT22;919;48.274;12.292;2023-08-08T10:35:15;21.20;99.90
1800;DHT22;919;48.274;12.292;2023-08-08T10:37:52;21.10;99.90
1800;DHT22;919;48.274;12.292;2023-08-08T10:40:20;21.10;99.90
1800;DHT22;919;48.274;12.292;2023-08-08T10:42:47;21.40;99.90
1800;DHT22;919;48.274;12.292;2023-08-08T10:45:16;21.60;99.90
1800;DHT22;919;48.274;12.292;2023-08-08T10:47:44;21.30;99.90
1800;DHT22;919;48.274;12.292;2023-08-08T10:50:13;21.30;99.90
1800;DHT22;919;48.274;12.292;2023-08-08T10:52:54;21.30;99.90
1800;DHT22;919;48.274;12.292;2023-08-08T10:55:23;21.40;99.90
1800;DHT22;919;48.274;12.292;2023-08-08T10:57:55;21.70;99.90
1800;DHT22;919;48.274;12.292;2023-08-08T11:00:27;21.30;99.90
1800;DHT22;919;48.274;12.292;2023-08-08T11:02:55;21.30;99.90
1800;DHT22;919;48.274;12.292;2023-08-08T11:05:22;21.40;99.90
1800;DHT22;919;48.274;12.292;2023-08-08T11:07:51;21.40;99.90
1800;DHT22;919;48.274;12.292;2023-08-08T11:10:18;21.50;99.90
1800;DHT22;919;48.274;12.292;2023-08-08T11:13:02;21.60;99.90
1800;DHT22;919;48.274;12.292;2023-08-08T11:15:32;21.70;99.90
1800;DHT22;919;48.274;12.292;2023-08-08T11:18:00;21.50;99.90
1800;DHT22;919;48.274;12.292;2023-08-08T11:20:30;21.50;99.90
1800;DHT22;919;48.274;12.292;2023-08-08T11:22:58;21.30;99.90
1800;DHT22;919;48.274;12.292;2023-08-08T11:25:27;21.50;99.90
1800;DHT22;919;48.274;12.292;2023-08-08T11:27:56;21.80;99.90
1800;DHT22;919;48.274;12.292;2023-08-08T11:30:27;21.90;99.90
1800;DHT22;919;48.274;12.292;2023-08-08T11:32:56;21.80;99.90
1800;DHT22;919;48.274;12.292;2023-08-08T11:35:25;21.90;99.90
1800;DHT22;919;48.274;12.292;2023-08-08T11:37:53;22.10;99.90
1800;DHT22;919;48.274;12.292;2023-08-08T11:40:23;22.20;99.90
1800;DHT22;919;48.274;12.292;2023-08-08T11:42:52;22.30;99.90
1800;DHT22;919;48.274;12.292;2023-08-08T11:45:20;22.20;99.90
1800;DHT22;919;48.274;12.292;2023-08-08T11:47:49;22.10;99.90
1800;DHT22;919;48.274;12.292;2023-08-08T11:50:20;22.00;99.90
1800;DHT22;919;48.274;12.292;2023-08-08T11:52:50;21.80;99.90
1800;DHT22;919;48.274;12.292;2023-08-08T11:55:18;21.80;99.90
1800;DHT22;919;48.274;12.292;2023-08-08T11:57:48;22.00;99.90
1800;DHT22;919;48.274;12.292;2023-08-08T12:00:15;22.00;99.90
1800;DHT22;919;48.274;12.292;2023-08-08T12:02:44;22.20;99.90
1800;DHT22;919;48.274;12.292;2023-08-08T12:05:12;22.20;99.90
1800;DHT22;919;48.274;12.292;2023-08-08T12:07:44;22.40;99.90
1800;DHT22;919;48.274;12.292;2023-08-08T12:10:14;22.60;99.90
1800;DHT22;919;48.274;12.292;2023-08-08T12:12:42;22.80;99.90
1800;DHT22;919;48.274;12.292;2023-08-08T12:15:10;22.60;99.90
1800;DHT22;919;48.274;12.292;2023-08-08T12:17:43;22.60;99.90
1800;DHT22;919;48.274;12.292;2023-08-08T12:20:10;22.80;99.90
1800;DHT22;919;48.274;12.292;2023-08-08T12:22:38;23.00;99.90
1800;DHT22;919;48.274;12.292;2023-08-08T12:25:08;23.00;99.90
1800;DHT22;919;48.274;12.292;2023-08-08T12:27:36;22.90;99.90
1800;DHT22;919;48.274;12.292;2023-08-08T12:30:06;22.70;99.90
1800;DHT22;919;48.274;12.292;2023-08-08T12:32:33;22.90;99.90
1800;DHT22;919;48.274;12.292;2023-08-08T12:35:01;23.10;99.90
1800;DHT22;919;48.274;12.292;2023-08-08T12:37:32;23.10;99.90
1800;DHT22;919;48.274;12.292;2023-08-08T12:39:59;23.20;99.90
1800;DHT22;919;48.274;12.292;2023-08-08T12:42:30;23.30;99.90
1800;DHT22;919;48.274;12.292;2023-08-08T12:44:58;23.20;99.90
1800;DHT22;919;48.274;12.292;2023-08-08T12:47:25;23.00;99.90
1800;DHT22;919;48.274;12.292;2023-08-08T12:49:53;23.00;99.90
1800;DHT22;919;48.274;12.292;2023-08-08T12:52:21;23.00;99.90
1800;DHT22;919;48.274;12.292;2023-08-08T12:54:48;23.00;99.90
1800;DHT22;919;48.274;12.292;2023-08-08T12:57:15;22.80;99.90
1800;DHT22;919;48.274;12.292;2023-08-08T12:59:44;22.80;99.90
1800;DHT22;919;48.274;12.292;2023-08-08T13:02:12;22.70;99.90
1800;DHT22;919;48.274;12.292;2023-08-08T13:04:39;22.90;99.90
1800;DHT22;919;48.274;12.292;2023-08-08T13:07:06;22.90;99.90
1800;DHT22;919;48.274;12.292;2023-08-08T13:09:38;22.80;99.90
1800;DHT22;919;48.274;12.292;2023-08-08T13:12:08;22.90;99.90
1800;DHT22;919;48.274;12.292;2023-08-08T13:14:36;22.90;99.90
1800;DHT22;919;48.274;12.292;2023-08-08T13:17:06;22.90;99.90
1800;DHT22;919;48.274;12.292;2023-08-08T13:19:33;22.60;99.90
1800;DHT22;919;48.274;12.292;2023-08-08T13:22:00;22.50;99.90
1800;DHT22;919;48.274;12.292;2023-08-08T13:24:29;22.40;99.90
1800;DHT22;919;48.274;12.292;2023-08-08T13:26:56;22.40;99.90
1800;DHT22;919;48.274;12.292;2023-08-08T13:29:23;22.60;99.90
1800;DHT22;919;48.274;12.292;2023-08-08T13:31:52;22.80;99.90
1800;DHT22;919;48.274;12.292;2023-08-08T13:34:21;22.90;99.90
1800;DHT22;919;48.274;12.292;2023-08-08T13:36:48;22.90;99.90
1800;DHT22;919;48.274;12.292;2023-08-08T13:39:15;22.80;99.90
1800;DHT22;919;48.274;12.292;2023-08-08T13:41:42;23.10;99.90
1800;DHT22;919;48.274;12.292;2023-08-08T13:44:09;23.30;99.90
1800;DHT22;919;48.274;12.292;2023-08-08T13:46:36;23.10;99.90
1800;DHT22;919;48.274;12.292;2023-08-08T13:49:03;23.00;99.90
1800;DHT22;919;48.274;12.292;2023-08-08T13:51:50;23.00;99.90
1800;DHT22;919;48.274;12.292;2023-08-08T13:54:23;23.10;99.90
1800;DHT22;919;48.274;12.292;2023-08-08T13:56:50;23.20;99.90
1800;DHT22;919;48.274;12.292;2023-08-08T13:59:18;23.60;99.90
1800;DHT22;919;48.274;12.292;2023-08-08T14:01:46;24.10;99.90
1800;DHT22;919;48.274;12.292;2023-08-08T14:04:13;24.10;99.90
1800;DHT22;919;48.274;12.292;2023-08-08T14:06:40;24.20;99.90
1800;DHT22;919;48.274;12.292;2023-08-08T14:09:08;24.00;99.90
1800;DHT22;919;48.274;12.292;2023-08-08T14:11:34;24.30;99.90
1800;DHT22;919;48.274;12.292;2023-08-08T14:14:01;24.60;99.90
1800;DHT22;919;48.274;12.292;2023-08-08T14:16:28;24.80;99.90
1800;DHT22;919;48.274;12.292;2023-08-08T14:18:55;24.90;99.90
1800;DHT22;919;48.274;12.292;2023-08-08T14:21:22;24.90;99.90
1800;DHT22;919;48.274;12.292;2023-08-08T14:23:48;24.60;99.90
1800;DHT22;919;48.274;12.292;2023-08-08T14:26:16;24.80;99.90
1800;DHT22;919;48.274;12.292;2023-08-08T14:28:43;24.60;99.90
1800;DHT22;919;48.274;12.292;2023-08-08T14:31:10;24.30;99.90
1800;DHT22;919;48.274;12.292;2023-08-08T14:33:37;23.90;99.90
1800;DHT22;919;48.274;12.292;2023-08-08T14:36:04;23.60;99.90
1800;DHT22;919;48.274;12.292;2023-08-08T14:38:34;23.90;99.90
1800;DHT22;919;48.274;12.292;2023-08-08T14:41:01;24.00;99.90
1800;DHT22;919;48.274;12.292;2023-08-08T14:43:29;23.70;99.90
1800;DHT22;919;48.274;12.292;2023-08-08T14:45:56;23.40;99.90
1800;DHT22;919;48.274;12.292;2023-08-08T14:48:23;23.30;99.90
1800;DHT22;919;48.274;12.292;2023-08-08T14:50:49;23.30;99.90
1800;DHT22;919;48.274;12.292;2023-08-08T14:53:16;23.60;99.90
1800;DHT22;919;48.274;12.292;2023-08-08T14:55:43;23.80;99.90
1800;DHT22;919;48.274;12.292;2023-08-08T14:58:10;23.90;99.90
1800;DHT22;919;48.274;12.292;2023-08-08T15:00:39;23.90;99.90
1800;DHT22;919;48.274;12.292;2023-08-08T15:03:05;23.90;99.90
1800;DHT22;919;48.274;12.292;2023-08-08T15:05:32;24.10;99.90
1800;DHT22;919;48.274;12.292;2023-08-08T15:07:59;24.20;99.90
1800;DHT22;919;48.274;12.292;2023-08-08T15:10:26;24.50;99.90
1800;DHT22;919;48.274;12.292;2023-08-08T15:12:52;24.60;99.90
1800;DHT22;919;48.274;12.292;2023-08-08T15:15:19;24.50;99.90
1800;DHT22;919;48.274;12.292;2023-08-08T15:17:49;24.30;99.90
1800;DHT22;919;48.274;12.292;2023-08-08T15:20:17;24.10;99.90
1800;DHT22;919;48.274;12.292;2023-08-08T15:22:44;23.80;99.90
1800;DHT22;919;48.274;12.292;2023-08-08T15:25:10;23.60;99.90
1800;DHT22;919;48.274;12.292;2023-08-08T15:27:37;23.50;99.90
1800;DHT22;919;48.274;12.292;2023-08-08T15:30:05;23.40;99.90
1800;DHT22;919;48.274;12.292;2023-08-08T15:32:32;23.40;99.90
1800;DHT22;919;48.274;12.292;2023-08-08T15:35:00;23.50;99.90
1800;DHT22;919;48.274;12.292;2023-08-08T15:37:27;23.70;99.90
1800;DHT22;919;48.274;12.292;2023-08-08T15:39:54;23.90;99.90
1800;DHT22;919;48.274;12.292;2023-08-08T15:42:20;23.70;99.90
1800;DHT22;919;48.274;12.292;2023-08-08T15:44:47;23.70;99.90
1800;DHT22;919;48.274;12.292;2023-08-08T15:47:14;23.80;99.90
1800;DHT22;919;48.274;12.292;2023-08-08T15:49:40;23.80;99.90
1800;DHT22;919;48.274;12.292;2023-08-08T15:52:09;23.80;99.90
1800;DHT22;919;48.274;12.292;2023-08-08T15:54:35;23.80;99.90
1800;DHT22;919;48.274;12.292;2023-08-08T15:57:02;23.80;99.90
1800;DHT22;919;48.274;12.292;2023-08-08T15:59:29;23.80;99.90
1800;DHT22;919;48.274;12.292;2023-08-08T16:01:56;24.00;99.90
1800;DHT22;919;48.274;12.292;2023-08-08T16:04:23;24.20;99.90